Terminal Aerodrome Forecast
Issued by NWS

Home | Current Version | Previous Version | Text Only | Print | Product List | Glossary On
Versions: 1 2 3 4 5 6 7 8 9 10
366
FTUS42 KTBW 230908 AAA
TAFPGD
TAF AMD
KPGD 230908Z 2309/2406 VRB03KT 6SM BR SCT100
      TEMPO 2309/2313 4SM BR SCT010 BKN025
     FM231500 06006KT P6SM SCT035 BKN250
     FM231800 30010KT P6SM VCTS SCT040CB BKN070
     FM240100 32005KT P6SM FEW030 BKN250=

USA.gov is the U.S. government's official web portal to all federal, state and local government web resources and services.